ESMTEKAH

Guest
Details From ESMT - Halmstad
To EKAH - Aarhus
Flight Number -
Tags generated
Created
Modified
Stats Distance 77 nm / 142 km
Max Altitude 7,700 ft / 2,347 m
Waypoints 3
Social Downloads 0
Likes 0
Share VATSIM

Download

Looking for another format? Having issues loading an existing format? Contact us
Advertisement - Login to hide

Notes

Basic altitude profile: - Ascent Rate: 2500ft/min - Ascent Speed: 250kts - Cruise Altitude: 35000ft - Cruise Speed: 420kts - Descent Rate: 1500ft/min - Descent Speed: 250kts Options: - Use NATs: no - Use PACOTS: no - Use low airways: yes - Use high airways: no

Route

ESMT NORTI EKAH

ID Type Via Altitude Latitude Longitude Leg Dist Tot Dist Heading (true) Name
O ESMT APT - 0 ft / 0 m 56.69110˚ 12.82020˚ - 0 nm - Halmstad
NORTI FIX - 7,700 ft / 2,347 m 56.52444˚ 11.62556˚ 40 nm 40 nm 256° / 255° -
O EKAH APT - 0 ft / 0 m 56.30426˚ 10.61945˚ 35 nm 76 nm 249° / 248° Aarhus

Altitude Profile

Advertisement - Login to hide

ESMT

Details ICAO ESMT (HAD)
Name Halmstad
Region Sweden
Timezone Europe/Stockholm (UTC+1.0)
Stats Elevation 101 ft / 31 m (AMSL)
Location 56.691097° 12.820203°
Runways 1
Magnetic Variation 3.853° E

METAR

ESMT 171620Z 00000KT 0200 R01/0450N R19/1200U FZFG VV001 M04/M05 Q1018

Decode

TAF

Not found

Departure Runways

ID Width Length Bearing (true) Bearing (mag) Surface Threshold Offset Overrun Length
01 131 ft / 40 m 7,410 ft / 2,259 m 6.19° 2.34° Asphalt 0 ft / 0 m 0 ft / 0 m
19 131 ft / 40 m 7,410 ft / 2,259 m 186.19° 182.34° Asphalt 0 ft / 0 m 0 ft / 0 m

EKAH

Details ICAO EKAH (AAR)
Name Aarhus
Region Denmark / Faroe Islands
Timezone Europe/Copenhagen (UTC+1.0)
Stats Elevation 82 ft / 25 m (AMSL)
Location 56.304265° 10.619452°
Runways 2
Magnetic Variation 3.052° E

METAR

EKAH 171620Z AUTO 21002KT 9999NDV NCD M03/M03 Q1018 R99/590195

Decode

TAF

TAF EKAH 171059Z 1712/1812 VRB05KT 9999 SCT025 TEMPO 1712/1720 2500 BR BKN010 BECMG 1718/1720 18008KT TEMPO 1800/1812 BKN008

Decode

Destination Runways

ID Width Length Bearing (true) Bearing (mag) Surface Threshold Offset Overrun Length
10L 75 ft / 23 m 9,081 ft / 2,768 m 100.30° 97.25° Asphalt 0 ft / 0 m 0 ft / 0 m
10R 148 ft / 45 m 8,837 ft / 2,693 m 100.29° 97.24° Asphalt 0 ft / 0 m 902 ft / 275 m
28L 148 ft / 45 m 8,837 ft / 2,693 m 280.33° 277.28° Asphalt 0 ft / 0 m 738 ft / 225 m
28R 75 ft / 23 m 9,081 ft / 2,768 m 280.34° 277.29° Asphalt 0 ft / 0 m 0 ft / 0 m

Approach Navaids

Runway Type Ident Frequency Range Bearing (true) Bearing (mag) Slope Elevation
10R Localiser AAR 111.90 MHz 18 nm / 33 km 100.33° 97.28° - 82 ft / 25 m (AMSL)
10R Glidescope AAR 111.90 MHz 10 nm / 19 km 100.31° 97.26° 2.75° 82 ft / 25 m (AMSL)
28L Localiser TR 111.10 MHz 18 nm / 33 km 280.29° 277.24° - 82 ft / 25 m (AMSL)
28L Glidescope TR 111.10 MHz 10 nm / 19 km 280.31° 277.26° 2.75° 82 ft / 25 m (AMSL)
28L DME TR 111.10 MHz 18 nm / 33 km - - - 79 ft / 24 m (AMSL)